• Join FlightAware (Why Join?)
  • Login
  • US Flag 
06:53PM EDT


 

Airport Tracker/Info


-or-


 

Live Flight TrackerFlight Track Log ✈ C-GWFB ✈ 01-May-2013 ✈ KDFI - CYFD

Flight Track Log - Related Links

Times and Time Zones

All times are in EDT time to prevent confusion due to time zone crossing. See the C-GWFB flight status page for this flight to view local times or setup timezone preferences in your user account.

Time Position Orientation Groundspeed Altitude Reporting Facility
EDT Latitude Longitude Course Direction KTS MPH feet Rate Location/Type
03:15PM 41.4463 -84.1778 66° East  Level FlightAware Approximate
03:16PM 41.4607 -84.1345 66° East  Level FlightAware Approximate
03:17PM 41.4778 -84.0931 58° Northeast  Level FlightAware Approximate
03:18PM 41.4852 -84.0454 78° East  Level FlightAware Approximate
03:19PM 41.4927 -83.9977 78° East  Level FlightAware Approximate
03:20PM 41.5001 -83.9500 78° East  Level FlightAware Approximate
03:21PM 41.5075 -83.9023 78° East  Level FlightAware Approximate
03:22PM 41.5149 -83.8546 78° East  Level FlightAware Approximate
03:23PM 41.5223 -83.8068 78° East  Level FlightAware Approximate
03:24PM 41.5297 -83.7591 78° East  Level FlightAware Approximate
03:25PM 41.5370 -83.7113 78° East  Level FlightAware Approximate
03:26PM 41.5443 -83.6635 78° East  Level FlightAware Approximate
03:27PM 41.5516 -83.6158 78° East  Level FlightAware Approximate
03:27PM 41.5658 -83.6028 70° East 135 155 7,100  Level Cleveland Center
03:28PM 41.5589 -83.5680 78° East  Level FlightAware Approximate
03:28PM 41.5822 -83.5314 73° East 134 154 7,100  Level Cleveland Center
03:29PM 41.5672 -83.5146 70° East  Level FlightAware Approximate
03:29PM 41.6061 -83.4908 52° Northeast 147 169 7,100  Level Cleveland Center
03:30PM 41.5798 -83.4689 70° East  Level FlightAware Approximate
03:30PM 41.6239 -83.4528 58° Northeast 142 163 7,000  Level Cleveland Center
03:31PM 41.5924 -83.4231 70° East  Level FlightAware Approximate
03:31PM 41.6522 -83.4011 54° Northeast 145 167 7,000  Level Cleveland Center
03:32PM 41.6050 -83.3772 70° East  Level FlightAware Approximate
03:33PM 41.6764 -83.3522 56° Northeast 142 163 7,000  Level Cleveland Center
03:34PM 41.6983 -83.3086 56° Northeast 141 162 7,000  Level Cleveland Center
03:35PM 41.7181 -83.2650 59° Northeast 137 158 7,000  Level Cleveland Center
03:36PM 41.7397 -83.2269 53° Northeast 140 161 7,000  Level Cleveland Center
03:37PM 41.7617 -83.1833 56° Northeast 141 162 7,000  Level Cleveland Center
03:38PM 41.7878 -83.1342 55° Northeast 140 161 7,000  Level Cleveland Center
03:39PM 41.8117 -83.0878 55° Northeast 139 160 7,000  Level Cleveland Center
03:40PM 41.8333 -83.0467 55° Northeast 137 158 7,000  Level Cleveland Center
03:41PM 41.8531 -83.0031 59° Northeast 134 154 7,000  Level Cleveland Center
03:42PM 41.8747 -82.9619 55° Northeast 135 155 7,000  Level Cleveland Center
03:43PM 41.8900 -82.9289 58° Northeast 140 161 7,000  Level Cleveland Center
03:44PM 41.9097 -82.8850 59° Northeast 140 161 7,000  Level Cleveland Center
03:45PM 41.9314 -82.8467 53° Northeast 135 155 7,000  Level Cleveland Center
03:46PM 41.9508 -82.8028 59° Northeast 135 155 7,000  Level Cleveland Center
03:47PM 41.9725 -82.7644 53° Northeast 135 155 7,000  Level Cleveland Center
03:48PM 41.9942 -82.7178 58° Northeast 135 155 7,000  Level Cleveland Center
03:49PM 42.0158 -82.6764 55° Northeast 135 155 7,000  Level Cleveland Center
03:50PM 42.0353 -82.6353 58° Northeast 130 150 7,000  Level Cleveland Center
03:51PM 42.0569 -82.5911 57° Northeast 130 150 7,000  Level Cleveland Center
03:52PM 42.0786 -82.5525 53° Northeast 130 150 7,000  Level Cleveland Center
03:53PM 42.0981 -82.5083 59° Northeast 130 150 7,000  Level Cleveland Center
03:54PM 42.1194 -82.4672 55° Northeast 130 150 7,000  Level Cleveland Center
03:55PM 42.1389 -82.4256 58° Northeast 130 150 7,000  Level Cleveland Center
03:56PM 42.1606 -82.3842 55° Northeast 130 150 7,000  Level Cleveland Center
03:57PM 42.1819 -82.3400 57° Northeast 130 150 7,000  Level Cleveland Center
03:58PM 42.2014 -82.2986 58° Northeast 125 144 7,000 -60 Level Cleveland Center
03:59PM 42.2228 -82.2569 55° Northeast 125 144 6,900 -60 Descending Cleveland Center
04:00PM 42.2444 -82.2128 56° Northeast 125 144 6,900  Level Cleveland Center
04:01PM 42.2658 -82.1739 53° Northeast 125 144 7,000  Climbing Cleveland Center
04:02PM 42.2831 -82.1325 61° Northeast 125 144 6,900  Descending Cleveland Center
04:03PM 42.3067 -82.0853 56° Northeast 125 144 7,000  Climbing Cleveland Center
04:04PM 42.3258 -82.0408 60° Northeast 125 144 7,000 -60 Level Cleveland Center
04:05PM 42.3453 -81.9992 58° Northeast 125 144 6,900 -60 Descending Cleveland Center
04:06PM 42.3664 -81.9603 54° Northeast 130 150 6,900  Level Cleveland Center
04:07PM 42.3878 -81.9156 57° Northeast 125 144 6,900  Level Cleveland Center
04:08PM 42.4072 -81.8739 58° Northeast 125 144 6,900  Level Cleveland Center
04:09PM 42.4264 -81.8319 58° Northeast 120 138 6,900  Level Cleveland Center
04:10PM 42.4475 -81.7931 54° Northeast 125 144 6,900  Level Cleveland Center
04:11PM 42.4689 -81.7514 55° Northeast 125 144 6,900  Level Cleveland Center
04:12PM 42.4858 -81.7150 58° Northeast 125 144 6,900  Level Cleveland Center
04:13PM 42.5050 -81.6758 56° Northeast 125 144 6,900  Level Cleveland Center
04:14PM 42.5264 -81.6311 57° Northeast 125 144 6,900  Level Cleveland Center
04:15PM 42.5456 -81.5892 58° Northeast 125 144 6,900  Level Cleveland Center
04:16PM 42.5644 -81.5500 57° Northeast 125 144 7,000 -120 Climbing Cleveland Center
04:17PM 42.5836 -81.5081 58° Northeast 125 144 6,700 -360 Descending Cleveland Center
04:18PM 42.6047 -81.4661 56° Northeast 125 144 6,300 -420 Descending Cleveland Center
04:19PM 42.6281 -81.4214 55° Northeast 125 144 5,900 -540 Descending Cleveland Center
04:20PM 42.6472 -81.3792 58° Northeast 125 144 5,300 -480 Descending Cleveland Center
04:21PM 42.6661 -81.3369 59° Northeast 125 144 5,000 -180 Descending Cleveland Center
04:22PM 42.6831 -81.3006 58° Northeast 120 138 5,000  Level Cleveland Center
04:23PM 42.7019 -81.2611 57° Northeast 120 138 5,000  Level Cleveland Center
04:24PM 42.7211 -81.2247 54° Northeast 120 138 5,000  Level Cleveland Center
04:25PM 42.7378 -81.1853 60° Northeast 120 138 5,000  Level Cleveland Center
04:26PM 42.7569 -81.1486 55° Northeast 120 138 5,000  Level Cleveland Center
04:27PM 42.7758 -81.1092 57° Northeast 120 138 5,000  Level Cleveland Center
04:28PM 42.7833 -81.0167 84° East 120 138 5,000 -60 Level Toronto Center
04:29PM 42.8000 -81.0000 36° Northeast 120 138 4,900 -120 Descending Toronto Center